createdAt,value
2018-12-16T00:02:31.393Z,18.27
2018-12-16T00:05:03.724Z,17.83
2018-12-16T00:07:35.226Z,19.13
2018-12-16T00:10:08.889Z,16.93
2018-12-16T00:12:40.236Z,17.47
2018-12-16T00:15:12.125Z,18.93
2018-12-16T00:17:44.089Z,17.53
2018-12-16T00:20:16.228Z,17.53
2018-12-16T00:22:47.530Z,17.43
2018-12-16T00:25:19.733Z,18.47
2018-12-16T00:27:51.849Z,18.10
2018-12-16T00:30:25.395Z,18.70
2018-12-16T00:32:57.203Z,17.70
2018-12-16T00:35:29.416Z,18.37
2018-12-16T00:38:01.127Z,17.63
2018-12-16T00:40:34.668Z,18.10
2018-12-16T00:43:06.766Z,18.17
2018-12-16T00:45:38.458Z,17.00
2018-12-16T00:48:10.413Z,17.13
2018-12-16T00:50:43.932Z,17.93
2018-12-16T00:53:15.480Z,19.23
2018-12-16T00:55:47.533Z,18.87
2018-12-16T00:58:18.813Z,18.03
2018-12-16T01:00:51.176Z,18.10
2018-12-16T01:03:25.396Z,19.73
2018-12-16T01:05:57.362Z,17.70
2018-12-16T01:08:29.255Z,18.37
2018-12-16T01:11:02.843Z,17.33
2018-12-16T01:13:36.782Z,17.63
2018-12-16T01:16:08.554Z,16.87
2018-12-16T01:18:40.779Z,17.77
2018-12-16T01:21:12.720Z,16.97
2018-12-16T01:23:44.898Z,16.40
2018-12-16T01:26:16.895Z,17.97
2018-12-16T01:28:48.987Z,17.33
2018-12-16T01:31:20.972Z,17.10
2018-12-16T01:33:54.793Z,16.43
2018-12-16T01:36:26.122Z,16.87
2018-12-16T01:38:58.024Z,17.37
2018-12-16T01:41:30.089Z,15.60
2018-12-16T01:44:03.656Z,17.20
2018-12-16T01:46:35.109Z,16.83
2018-12-16T01:49:07.090Z,16.63
2018-12-16T01:51:39.144Z,16.77
2018-12-16T01:54:11.234Z,15.70
2018-12-16T01:56:42.945Z,17.30
2018-12-16T01:59:15.037Z,17.43
2018-12-16T02:01:53.973Z,17.00
2018-12-16T02:04:27.781Z,17.47
2018-12-16T02:07:01.308Z,18.77
2018-12-16T02:09:33.675Z,18.80
2018-12-16T02:12:07.617Z,18.43
2018-12-16T02:14:39.437Z,18.90
2018-12-16T02:17:11.545Z,18.67
2018-12-16T02:19:43.727Z,18.97
2018-12-16T02:22:15.034Z,19.60
2018-12-16T02:24:48.610Z,18.07
2018-12-16T02:27:21.635Z,19.67
2018-12-16T02:29:55.914Z,18.43
2018-12-16T02:32:32.446Z,18.73
2018-12-16T02:35:06.986Z,19.17
2018-12-16T02:37:50.448Z,20.30
2018-12-16T02:40:22.191Z,20.10
2018-12-16T02:42:55.064Z,19.63
2018-12-16T02:45:29.506Z,20.90
2018-12-16T02:48:01.111Z,20.03
2018-12-16T02:50:32.806Z,20.30
2018-12-16T02:53:06.642Z,20.77
2018-12-16T02:55:40.507Z,20.60
2018-12-16T02:58:12.138Z,20.13
2018-12-16T03:00:44.437Z,20.10
2018-12-16T03:03:16.402Z,20.80
2018-12-16T03:05:48.220Z,20.93
2018-12-16T03:08:20.279Z,20.40
2018-12-16T03:10:52.240Z,21.17
2018-12-16T03:13:24.300Z,21.77
2018-12-16T03:15:57.870Z,21.33
2018-12-16T03:18:29.653Z,21.43
2018-12-16T03:21:02.188Z,21.30
2018-12-16T03:23:33.892Z,20.77
2018-12-16T03:26:05.964Z,20.60
2018-12-16T03:28:38.020Z,21.20
2018-12-16T03:31:11.827Z,20.93
2018-12-16T03:33:45.491Z,21.53
2018-12-16T03:36:17.258Z,20.93
2018-12-16T03:38:49.248Z,22.63
2018-12-16T03:41:21.403Z,21.27
2018-12-16T03:43:53.503Z,20.90
2018-12-16T03:46:25.376Z,21.97
2018-12-16T03:48:58.957Z,20.77
2018-12-16T03:51:30.316Z,20.10
2018-12-16T03:54:02.836Z,20.00
2018-12-16T03:56:34.333Z,22.73
2018-12-16T03:59:15.395Z,21.20
2018-12-16T04:01:52.162Z,20.90
2018-12-16T04:04:23.985Z,19.93
2018-12-16T04:06:55.819Z,19.87
2018-12-16T04:09:27.885Z,20.57
2018-12-16T04:11:59.825Z,19.97
2018-12-16T04:14:31.685Z,20.33
2018-12-16T04:17:03.900Z,20.37
2018-12-16T04:19:37.418Z,19.50
2018-12-16T04:22:09.308Z,18.73
2018-12-16T04:24:40.844Z,19.77
2018-12-16T04:27:14.402Z,18.77
2018-12-16T04:29:46.136Z,18.13
2018-12-16T04:32:18.018Z,20.23
2018-12-16T04:34:50.091Z,19.20
2018-12-16T04:37:22.452Z,19.33
2018-12-16T04:39:54.239Z,19.43
2018-12-16T04:42:28.018Z,19.07
2018-12-16T04:45:02.207Z,19.27
2018-12-16T04:47:35.954Z,19.50
2018-12-16T04:50:08.586Z,19.23
2018-12-16T04:52:41.065Z,18.87
2018-12-16T04:55:15.562Z,19.77
2018-12-16T04:57:47.120Z,18.80
2018-12-16T05:00:19.207Z,18.50
2018-12-16T05:02:53.658Z,18.27
2018-12-16T05:05:25.268Z,18.57
2018-12-16T05:07:57.409Z,18.03
2018-12-16T05:10:30.053Z,18.77
2018-12-16T05:13:03.589Z,19.00
2018-12-16T05:15:36.746Z,20.07
2018-12-16T05:18:08.653Z,19.10
2018-12-16T05:20:40.617Z,19.57
2018-12-16T05:23:12.601Z,19.00
2018-12-16T05:25:44.485Z,18.53
2018-12-16T05:28:16.583Z,18.27
2018-12-16T05:30:50.192Z,18.40
2018-12-16T05:33:21.749Z,18.37
2018-12-16T05:35:55.266Z,18.67
2018-12-16T05:38:26.937Z,18.77
2018-12-16T05:40:58.889Z,19.07
2018-12-16T05:43:31.037Z,18.10
2018-12-16T05:46:04.588Z,18.70
2018-12-16T05:48:36.482Z,17.47
2018-12-16T05:51:08.662Z,17.87
2018-12-16T05:53:40.975Z,17.60
2018-12-16T05:56:12.847Z,17.73
2018-12-16T05:58:45.208Z,18.53
2018-12-16T06:01:17.369Z,18.07
2018-12-16T06:03:49.234Z,17.53
2018-12-16T06:06:23.080Z,17.60
2018-12-16T06:08:54.790Z,17.43
2018-12-16T06:11:26.896Z,18.13
2018-12-16T06:13:58.560Z,17.70
2018-12-16T06:16:30.950Z,18.30
2018-12-16T06:19:02.674Z,18.00
2018-12-16T06:24:08.021Z,20.90
2018-12-16T06:26:41.082Z,19.67
2018-12-16T06:29:16.953Z,18.97
2018-12-16T06:31:48.951Z,17.43
2018-12-16T06:34:23.918Z,18.83
2018-12-16T06:36:56.834Z,18.93
2018-12-16T06:39:30.894Z,18.20
2018-12-16T06:42:02.700Z,18.67
2018-12-16T06:44:36.284Z,19.07
2018-12-16T06:47:10.165Z,18.13
2018-12-16T06:49:41.522Z,18.37
2018-12-16T06:52:15.802Z,19.20
2018-12-16T06:54:50.922Z,19.50
2018-12-16T06:57:26.656Z,21.82
2018-12-16T07:00:02.782Z,18.43
2018-12-16T07:02:34.509Z,18.90
2018-12-16T07:05:07.484Z,19.37
2018-12-16T07:07:42.011Z,18.70
2018-12-16T07:10:13.952Z,17.57
2018-12-16T07:12:45.950Z,18.37
2018-12-16T07:15:17.957Z,18.10
2018-12-16T07:17:49.983Z,18.50
2018-12-16T07:20:22.043Z,18.47
2018-12-16T07:25:24.807Z,18.23
2018-12-16T07:27:58.714Z,18.07
2018-12-16T07:30:30.328Z,18.13
2018-12-16T07:33:03.901Z,18.47
2018-12-16T07:35:35.659Z,17.83
2018-12-16T07:38:07.725Z,17.67
2018-12-16T07:40:39.946Z,18.43
2018-12-16T07:43:12.074Z,17.23
2018-12-16T07:45:43.817Z,18.13
2018-12-16T07:48:16.004Z,17.37
2018-12-16T07:50:51.381Z,20.90
2018-12-16T07:53:27.088Z,17.30
2018-12-16T07:55:59.528Z,17.83
2018-12-16T07:58:31.394Z,18.20
2018-12-16T08:01:03.599Z,18.30
2018-12-16T08:03:35.861Z,18.37
2018-12-16T08:06:07.984Z,18.43
2018-12-16T08:08:42.262Z,18.07
2018-12-16T08:11:17.128Z,17.40
2018-12-16T08:13:52.613Z,17.73
2018-12-16T08:16:26.150Z,18.70
2018-12-16T08:18:58.631Z,17.97
2018-12-16T08:21:30.092Z,18.87
2018-12-16T08:24:02.481Z,19.23
2018-12-16T08:26:34.462Z,17.90
2018-12-16T08:29:06.242Z,17.80
2018-12-16T08:31:38.572Z,18.50
2018-12-16T08:34:10.236Z,18.03
2018-12-16T08:36:43.484Z,17.70
2018-12-16T08:39:15.599Z,18.03
2018-12-16T08:41:47.624Z,18.10
2018-12-16T08:44:19.951Z,19.03
2018-12-16T08:46:51.978Z,17.90
2018-12-16T08:49:23.973Z,18.80
2018-12-16T08:51:56.075Z,19.50
2018-12-16T08:54:30.249Z,19.73
2018-12-16T08:57:02.202Z,19.00
2018-12-16T08:59:33.923Z,19.60
2018-12-16T09:02:05.990Z,18.67
2018-12-16T09:04:37.682Z,20.03
2018-12-16T09:07:10.093Z,19.27
2018-12-16T09:09:44.835Z,19.70
2018-12-16T09:12:19.885Z,20.20
2018-12-16T09:14:55.393Z,20.63
2018-12-16T09:17:26.993Z,19.40
2018-12-16T09:19:58.914Z,19.00
2018-12-16T09:22:32.210Z,19.20
2018-12-16T09:27:34.848Z,19.37
2018-12-16T09:30:08.261Z,19.80
2018-12-16T09:32:40.282Z,18.63
2018-12-16T09:35:12.286Z,19.20
2018-12-16T09:37:46.288Z,19.77
2018-12-16T09:40:20.175Z,18.30
2018-12-16T09:42:53.908Z,19.33
2018-12-16T09:45:26.710Z,19.60
2018-12-16T09:48:01.473Z,21.48
2018-12-16T09:50:33.719Z,19.77
2018-12-16T09:53:05.431Z,18.43
2018-12-16T09:55:37.405Z,19.83
2018-12-16T10:18:46.825Z,17.63
2018-12-16T10:21:20.437Z,16.53
2018-12-16T10:23:54.494Z,17.27
2018-12-16T10:28:59.505Z,18.33
2018-12-16T10:31:33.814Z,17.97
2018-12-16T10:34:07.941Z,18.93
2018-12-16T10:36:41.786Z,18.37
2018-12-16T10:39:16.120Z,18.40
2018-12-16T10:41:50.132Z,16.77
2018-12-16T10:44:23.961Z,17.63
2018-12-16T10:46:57.948Z,17.43
2018-12-16T10:49:31.989Z,18.73
2018-12-16T10:52:06.097Z,18.80
2018-12-16T10:54:39.969Z,19.30
2018-12-16T10:57:13.889Z,19.20
2018-12-16T10:59:47.786Z,19.20
2018-12-16T11:02:21.733Z,17.90
2018-12-16T11:04:55.597Z,19.07
2018-12-16T11:07:29.644Z,17.20
2018-12-16T11:10:03.373Z,19.03
2018-12-16T11:12:37.863Z,19.20
2018-12-16T11:15:11.529Z,18.50
2018-12-16T11:17:45.686Z,19.03
2018-12-16T11:20:19.319Z,18.20
2018-12-16T11:22:53.305Z,17.83
2018-12-16T11:25:27.163Z,18.57
2018-12-16T11:30:31.194Z,19.33
2018-12-16T11:33:04.738Z,17.80
2018-12-16T11:35:39.017Z,19.20
2018-12-16T11:38:12.653Z,18.47
2018-12-16T11:40:46.576Z,18.33
2018-12-16T11:43:20.707Z,20.03
2018-12-16T11:45:55.414Z,19.73
2018-12-16T11:48:28.175Z,20.95
2018-12-16T11:51:02.561Z,19.63
2018-12-16T11:53:36.094Z,19.00
2018-12-16T11:56:08.690Z,19.57
2018-12-16T11:58:42.568Z,19.13
2018-12-16T12:01:16.538Z,19.33
2018-12-16T12:03:50.361Z,19.27
2018-12-16T12:06:25.284Z,22.13
2018-12-16T12:08:57.380Z,17.63
2018-12-16T12:11:29.462Z,19.62
2018-12-16T12:14:02.181Z,20.95
2018-12-16T12:16:35.769Z,19.45
2018-12-16T12:19:09.938Z,18.93
2018-12-16T12:21:43.963Z,19.60
2018-12-16T12:24:15.813Z,18.53
2018-12-16T12:26:50.077Z,18.47
2018-12-16T12:29:24.121Z,19.10
2018-12-16T12:31:57.972Z,19.47
2018-12-16T12:34:29.824Z,18.27
2018-12-16T12:37:04.421Z,20.65
2018-12-16T12:39:38.273Z,19.77
2018-12-16T12:42:10.278Z,18.73
2018-12-16T12:44:44.590Z,18.50
2018-12-16T12:47:19.162Z,18.83
2018-12-16T12:49:52.996Z,20.37
2018-12-16T12:52:26.985Z,19.77
2018-12-16T12:55:00.924Z,20.37
2018-12-16T12:57:35.109Z,19.00
2018-12-16T13:00:09.107Z,18.57
2018-12-16T13:02:43.246Z,19.37
2018-12-16T13:05:15.140Z,18.70
2018-12-16T13:07:48.935Z,19.00
2018-12-16T13:10:22.982Z,19.00
2018-12-16T13:12:56.963Z,18.73
2018-12-16T13:15:30.854Z,19.23
2018-12-16T13:18:04.479Z,18.60
2018-12-16T13:20:38.562Z,19.70
2018-12-16T13:23:12.694Z,19.37
2018-12-16T13:25:46.307Z,20.00
2018-12-16T13:28:20.329Z,18.77
2018-12-16T13:30:54.517Z,19.40
2018-12-16T13:33:28.447Z,20.27
2018-12-16T13:36:02.620Z,19.70
2018-12-16T13:38:36.518Z,18.93
2018-12-16T13:41:10.317Z,19.87
2018-12-16T13:43:44.163Z,18.73
2018-12-16T13:46:18.065Z,18.87
2018-12-16T13:48:52.030Z,19.00
2018-12-16T13:51:25.901Z,18.30
2018-12-16T13:53:57.843Z,19.73
2018-12-16T13:56:30.802Z,19.50
2018-12-16T13:59:03.453Z,18.47
2018-12-16T14:01:37.454Z,18.37
2018-12-16T14:04:11.601Z,19.20
2018-12-16T14:06:45.458Z,18.37
2018-12-16T14:09:18.140Z,19.73
2018-12-16T14:11:51.903Z,18.23
2018-12-16T14:14:26.310Z,19.23
2018-12-16T14:16:59.054Z,17.93
2018-12-16T14:19:33.121Z,17.87
2018-12-16T14:22:06.865Z,18.57
2018-12-16T14:24:41.061Z,17.87
2018-12-16T14:27:15.148Z,18.83
2018-12-16T14:29:49.064Z,17.67
2018-12-16T14:32:23.204Z,18.17
2018-12-16T14:34:57.163Z,19.27
2018-12-16T14:37:31.139Z,17.50
2018-12-16T14:40:04.961Z,17.17
2018-12-16T14:42:39.191Z,16.13
2018-12-16T14:45:13.150Z,16.20
2018-12-16T14:47:47.344Z,16.20
2018-12-16T14:50:21.077Z,17.23
2018-12-16T14:52:55.110Z,15.03
2018-12-16T14:55:28.778Z,16.07
2018-12-16T14:58:02.850Z,15.33
2018-12-16T15:00:36.809Z,15.27
2018-12-16T15:03:10.599Z,14.73
2018-12-16T15:05:44.413Z,16.07
2018-12-16T15:08:18.268Z,16.00
2018-12-16T15:10:52.217Z,17.40
2018-12-16T15:13:26.281Z,17.90
2018-12-16T15:16:00.302Z,17.70
2018-12-16T15:18:34.274Z,19.10
2018-12-16T15:21:08.470Z,17.13
2018-12-16T15:23:42.611Z,17.40
2018-12-16T15:26:16.452Z,16.97
2018-12-16T15:28:50.758Z,17.47
2018-12-16T15:31:23.706Z,16.87
2018-12-16T15:33:57.281Z,17.27
2018-12-16T15:36:31.212Z,18.13
2018-12-16T15:39:05.191Z,16.37
2018-12-16T15:41:38.927Z,19.70
2018-12-16T15:44:12.485Z,16.63
2018-12-16T15:46:46.301Z,16.97
2018-12-16T15:49:20.038Z,17.20
2018-12-16T15:51:53.658Z,17.13
2018-12-16T15:54:27.742Z,18.27
2018-12-16T15:57:02.373Z,16.90
2018-12-16T15:59:36.699Z,18.47
2018-12-16T16:02:10.748Z,16.50
2018-12-16T16:04:44.896Z,17.15
2018-12-16T16:07:18.890Z,17.13
2018-12-16T16:09:52.637Z,17.23
2018-12-16T16:12:26.852Z,17.10
2018-12-16T16:15:00.495Z,17.53
2018-12-16T16:17:34.665Z,17.23
2018-12-16T16:20:08.244Z,15.67
2018-12-16T16:22:42.859Z,15.77
2018-12-16T16:25:17.265Z,16.20
2018-12-16T16:27:50.816Z,16.03
2018-12-16T16:30:24.649Z,14.40
2018-12-16T16:32:58.705Z,14.73
2018-12-16T16:35:32.970Z,13.90
2018-12-16T16:38:07.610Z,13.67
2018-12-16T16:40:41.646Z,13.90
2018-12-16T16:43:15.259Z,13.90
2018-12-16T16:45:49.296Z,13.37
2018-12-16T16:48:23.576Z,13.03
2018-12-16T16:50:57.400Z,14.73
2018-12-16T16:53:31.435Z,13.37
2018-12-16T16:56:05.286Z,13.87
2018-12-16T16:58:39.206Z,13.33
2018-12-16T17:01:14.702Z,13.50
2018-12-16T17:03:47.881Z,14.17
2018-12-16T17:06:21.122Z,14.10
2018-12-16T17:08:54.674Z,14.27
2018-12-16T17:11:29.063Z,14.13
2018-12-16T17:14:02.887Z,14.10
2018-12-16T17:16:36.905Z,14.57
2018-12-16T17:19:10.865Z,15.67
2018-12-16T17:21:44.926Z,14.93
2018-12-16T17:24:18.961Z,15.60
2018-12-16T17:26:53.183Z,15.33
2018-12-16T17:29:26.961Z,15.73
2018-12-16T17:32:00.598Z,14.63
2018-12-16T17:34:34.456Z,15.07
2018-12-16T17:37:08.333Z,14.00
2018-12-16T17:39:42.506Z,14.07
2018-12-16T17:42:16.402Z,16.53
2018-12-16T17:44:50.478Z,17.00
2018-12-16T17:47:24.523Z,16.20
2018-12-16T17:49:58.877Z,18.65
2018-12-16T17:52:32.809Z,16.93
2018-12-16T17:55:07.022Z,15.17
2018-12-16T17:57:40.787Z,14.63
2018-12-16T18:00:15.247Z,14.27
2018-12-16T18:02:49.098Z,15.03
2018-12-16T18:05:23.041Z,15.67
2018-12-16T18:07:57.158Z,14.63
2018-12-16T18:10:31.391Z,14.30
2018-12-16T18:13:05.365Z,13.37
2018-12-16T18:15:39.301Z,12.73
2018-12-16T18:18:13.290Z,12.87
2018-12-16T18:20:47.470Z,12.40
2018-12-16T18:23:21.502Z,11.37
2018-12-16T18:25:55.202Z,12.13
2018-12-16T18:28:29.284Z,12.17
2018-12-16T18:31:03.059Z,13.48
2018-12-16T18:33:37.158Z,12.30
2018-12-16T18:36:11.189Z,11.87
2018-12-16T18:38:45.333Z,14.23
2018-12-16T18:41:19.977Z,12.90
2018-12-16T18:43:54.582Z,12.87
2018-12-16T18:46:28.314Z,13.57
2018-12-16T18:49:02.190Z,13.20
2018-12-16T18:51:36.001Z,13.87
2018-12-16T18:54:09.834Z,13.50
2018-12-16T18:56:43.623Z,12.97
2018-12-16T18:59:17.430Z,13.63
2018-12-16T19:01:51.532Z,13.97
2018-12-16T19:04:25.289Z,14.43
2018-12-16T19:06:59.357Z,15.20
2018-12-16T19:09:33.511Z,14.93
2018-12-16T19:12:07.051Z,15.10
2018-12-16T19:14:41.254Z,15.20
2018-12-16T19:17:15.711Z,15.30
2018-12-16T19:19:49.841Z,15.77
2018-12-16T19:22:23.741Z,16.27
2018-12-16T19:24:57.687Z,15.50
2018-12-16T19:27:31.470Z,15.83
2018-12-16T19:30:05.328Z,15.57
2018-12-16T19:32:39.138Z,16.60
2018-12-16T19:35:13.150Z,16.47
2018-12-16T19:37:46.897Z,15.83
2018-12-16T19:40:20.792Z,15.90
2018-12-16T19:42:54.687Z,16.17
2018-12-16T19:45:28.445Z,16.23
2018-12-16T19:48:02.361Z,15.13
2018-12-16T19:50:36.297Z,15.17
2018-12-16T19:53:10.427Z,15.87
2018-12-16T19:55:44.268Z,16.50
2018-12-16T19:58:18.274Z,16.87
2018-12-16T20:00:55.499Z,15.97
2018-12-16T20:03:31.524Z,16.27
2018-12-16T20:06:11.117Z,15.73
2018-12-16T20:08:45.034Z,15.63
2018-12-16T20:11:18.607Z,16.20
2018-12-16T20:13:52.668Z,18.40
2018-12-16T20:16:26.645Z,16.80
2018-12-16T20:19:01.355Z,16.57
2018-12-16T20:21:35.489Z,15.80
2018-12-16T20:24:11.497Z,15.30
2018-12-16T20:26:45.637Z,13.70
2018-12-16T20:29:19.877Z,14.37
2018-12-16T20:31:53.852Z,14.27
2018-12-16T20:34:27.802Z,14.47
2018-12-16T20:37:01.823Z,15.07
2018-12-16T20:39:35.892Z,14.60
2018-12-16T20:42:09.956Z,13.87
2018-12-16T20:44:44.024Z,15.30
2018-12-16T20:47:17.969Z,14.77
2018-12-16T20:49:51.956Z,15.47
2018-12-16T20:52:25.773Z,16.10
2018-12-16T20:54:59.834Z,15.20
2018-12-16T20:57:33.687Z,15.27
2018-12-16T21:00:07.784Z,14.97
2018-12-16T21:02:41.718Z,13.70
2018-12-16T21:05:15.800Z,15.30
2018-12-16T21:07:50.302Z,13.33
2018-12-16T21:10:23.843Z,14.30
2018-12-16T21:13:02.961Z,14.80
2018-12-16T21:15:41.313Z,14.33
2018-12-16T21:18:20.561Z,14.43
2018-12-16T21:20:54.860Z,14.57
2018-12-16T21:23:28.769Z,15.27
2018-12-16T21:26:02.781Z,14.03
2018-12-16T21:28:36.910Z,14.37
2018-12-16T21:31:10.853Z,14.30
2018-12-16T21:33:44.826Z,13.37
2018-12-16T21:36:18.754Z,13.40
2018-12-16T21:38:53.115Z,13.63
2018-12-16T21:41:27.033Z,13.70
2018-12-16T21:44:00.987Z,12.90
2018-12-16T21:46:34.976Z,13.10
2018-12-16T21:49:08.906Z,13.43
2018-12-16T21:51:42.802Z,13.00
2018-12-16T21:54:17.043Z,12.97
2018-12-16T21:56:50.588Z,13.73
2018-12-16T21:59:24.781Z,13.63
2018-12-16T22:01:58.790Z,12.13
2018-12-16T22:04:32.846Z,12.90
2018-12-16T22:07:06.809Z,13.13
2018-12-16T22:09:40.845Z,12.97
2018-12-16T22:12:14.997Z,12.40
2018-12-16T22:14:49.066Z,12.67
2018-12-16T22:17:23.008Z,11.67
2018-12-16T22:19:57.139Z,12.77
2018-12-16T22:22:31.441Z,11.30
2018-12-16T22:25:05.581Z,11.30
2018-12-16T22:27:40.344Z,11.03
2018-12-16T22:30:14.300Z,11.37
2018-12-16T22:32:48.240Z,10.97
2018-12-16T22:35:22.307Z,11.63
2018-12-16T22:37:56.178Z,10.87
2018-12-16T22:40:30.532Z,11.23
2018-12-16T22:43:04.286Z,11.43
2018-12-16T22:45:38.117Z,10.37
2018-12-16T22:48:12.154Z,11.37
2018-12-16T22:50:46.080Z,10.43
2018-12-16T22:53:19.870Z,10.70
2018-12-16T22:55:53.665Z,11.03
2018-12-16T22:58:27.533Z,10.60
2018-12-16T23:01:06.897Z,10.47
2018-12-16T23:03:40.432Z,10.97
2018-12-16T23:06:14.276Z,11.83
2018-12-16T23:08:48.288Z,11.13
2018-12-16T23:11:22.323Z,12.03
2018-12-16T23:13:56.724Z,12.80
2018-12-16T23:16:30.389Z,11.40
2018-12-16T23:19:04.398Z,11.07
2018-12-16T23:21:38.391Z,11.47
2018-12-16T23:24:12.242Z,12.07
2018-12-16T23:26:46.160Z,10.57
2018-12-16T23:29:20.419Z,10.70
2018-12-16T23:31:54.142Z,11.03
2018-12-16T23:34:28.166Z,11.07
2018-12-16T23:37:02.432Z,10.93
2018-12-16T23:39:36.289Z,9.93
2018-12-16T23:42:10.130Z,10.43
2018-12-16T23:44:44.257Z,10.83
2018-12-16T23:47:18.273Z,11.23
2018-12-16T23:49:52.408Z,11.80
2018-12-16T23:52:26.081Z,10.80
2018-12-16T23:55:00.065Z,10.73
2018-12-16T23:57:34.133Z,10.67
